KRLD

Richland Airport

Richland, Washington, USA
METAR KRLD 181335Z AUTO 21015G20KT 10SM OVC100 07/02 A3008 RMK AO2 T00730023
Observed Flight Rules
Jan-18 @ 13:35 UTC (11 minutes ago) Visual Flight Rules
Wind Visibility Clouds
210° at 15 knots
 Gusting to 20 knots
10 miles
  • Overcast at 10,000' AGL
Temperatures Readings
Current 7°C / 45°F
Dewpoint 2°C / 36°F
Humidity 71%
Altimeter 30.08" Hg
Pressure 1018.62 hPa
Elevation 120
METAR KRLD 181335Z AUTO 21015G20KT 10SM OVC100 07/02 A3008 RMK AO2 T00730023
Observed Flight Rules
Jan-18 @ 13:35 UTC
(11 minutes ago)
VFR
Wind Visibility
210° at 15 knots
 Gusting to 20 knots
10 miles
Clouds
  • Overcast at 10,000' AGL
Temperature Dewpoint
7°C / 45°F 2°C / 36°F
Humidity Altimeter Pressure
71% 30.08" Hg 1018.62 hPa